sensor_id;sensor_type;location;lat;lon;timestamp;P1;durP1;ratioP1;P2;durP2;ratioP2
7003;SDS011;3542;48.812;9.146;2022-10-16T00:01:10;5.33;;;1.23;;
7003;SDS011;3542;48.812;9.146;2022-10-16T00:03:38;1.47;;;1.30;;
7003;SDS011;3542;48.812;9.146;2022-10-16T00:06:05;1.73;;;1.23;;
7003;SDS011;3542;48.812;9.146;2022-10-16T00:08:31;1.90;;;1.23;;
7003;SDS011;3542;48.812;9.146;2022-10-16T00:11:10;2.73;;;1.10;;
7003;SDS011;3542;48.812;9.146;2022-10-16T00:13:39;1.63;;;1.23;;
7003;SDS011;3542;48.812;9.146;2022-10-16T00:16:06;2.00;;;1.17;;
7003;SDS011;3542;48.812;9.146;2022-10-16T00:18:32;3.53;;;1.40;;
7003;SDS011;3542;48.812;9.146;2022-10-16T00:21:05;1.30;;;1.20;;
7003;SDS011;3542;48.812;9.146;2022-10-16T00:23:32;1.73;;;1.40;;
7003;SDS011;3542;48.812;9.146;2022-10-16T00:25:59;2.67;;;1.50;;
7003;SDS011;3542;48.812;9.146;2022-10-16T00:28:29;4.70;;;1.40;;
7003;SDS011;3542;48.812;9.146;2022-10-16T00:30:55;4.60;;;1.73;;
7003;SDS011;3542;48.812;9.146;2022-10-16T00:33:21;2.60;;;1.97;;
7003;SDS011;3542;48.812;9.146;2022-10-16T00:35:47;1.93;;;1.30;;
7003;SDS011;3542;48.812;9.146;2022-10-16T00:38:12;3.47;;;1.97;;
7003;SDS011;3542;48.812;9.146;2022-10-16T00:40:38;1.70;;;1.60;;
7003;SDS011;3542;48.812;9.146;2022-10-16T00:43:13;9.30;;;1.80;;
7003;SDS011;3542;48.812;9.146;2022-10-16T00:45:59;1.70;;;1.30;;
7003;SDS011;3542;48.812;9.146;2022-10-16T00:48:26;5.43;;;1.47;;
7003;SDS011;3542;48.812;9.146;2022-10-16T00:50:52;5.80;;;1.97;;
7003;SDS011;3542;48.812;9.146;2022-10-16T00:53:18;1.90;;;1.63;;
7003;SDS011;3542;48.812;9.146;2022-10-16T00:55:44;4.27;;;1.50;;
7003;SDS011;3542;48.812;9.146;2022-10-16T00:58:10;5.23;;;1.20;;
7003;SDS011;3542;48.812;9.146;2022-10-16T02:31:15;2.20;;;1.40;;
7003;SDS011;3542;48.812;9.146;2022-10-16T02:33:47;6.03;;;2.20;;
7003;SDS011;3542;48.812;9.146;2022-10-16T02:36:12;2.67;;;1.50;;
7003;SDS011;3542;48.812;9.146;2022-10-16T02:38:38;2.53;;;1.50;;
7003;SDS011;3542;48.812;9.146;2022-10-16T02:41:05;4.63;;;1.00;;
7003;SDS011;3542;48.812;9.146;2022-10-16T02:43:31;3.27;;;1.20;;
7003;SDS011;3542;48.812;9.146;2022-10-16T02:45:58;2.10;;;0.90;;
7003;SDS011;3542;48.812;9.146;2022-10-16T02:48:24;1.57;;;1.47;;
7003;SDS011;3542;48.812;9.146;2022-10-16T02:50:50;4.20;;;1.27;;
7003;SDS011;3542;48.812;9.146;2022-10-16T02:53:16;1.20;;;1.20;;
7003;SDS011;3542;48.812;9.146;2022-10-16T02:55:41;1.63;;;1.13;;
7003;SDS011;3542;48.812;9.146;2022-10-16T02:58:07;1.40;;;1.30;;
7003;SDS011;3542;48.812;9.146;2022-10-16T03:00:32;2.03;;;1.30;;
7003;SDS011;3542;48.812;9.146;2022-10-16T03:02:58;3.90;;;1.20;;
7003;SDS011;3542;48.812;9.146;2022-10-16T03:05:24;2.10;;;1.20;;
7003;SDS011;3542;48.812;9.146;2022-10-16T03:07:49;1.50;;;1.40;;
7003;SDS011;3542;48.812;9.146;2022-10-16T03:10:15;2.97;;;1.30;;
7003;SDS011;3542;48.812;9.146;2022-10-16T03:12:40;1.60;;;1.23;;
7003;SDS011;3542;48.812;9.146;2022-10-16T03:15:06;2.17;;;1.47;;
7003;SDS011;3542;48.812;9.146;2022-10-16T03:17:32;1.10;;;1.00;;
7003;SDS011;3542;48.812;9.146;2022-10-16T03:19:58;2.90;;;1.40;;
7003;SDS011;3542;48.812;9.146;2022-10-16T03:22:23;3.03;;;1.20;;
7003;SDS011;3542;48.812;9.146;2022-10-16T03:24:49;1.50;;;1.40;;
7003;SDS011;3542;48.812;9.146;2022-10-16T03:27:14;3.60;;;1.80;;
7003;SDS011;3542;48.812;9.146;2022-10-16T03:29:40;3.03;;;1.57;;
7003;SDS011;3542;48.812;9.146;2022-10-16T03:32:05;3.57;;;1.40;;
7003;SDS011;3542;48.812;9.146;2022-10-16T03:34:31;3.13;;;1.47;;
7003;SDS011;3542;48.812;9.146;2022-10-16T03:36:56;1.47;;;1.23;;
7003;SDS011;3542;48.812;9.146;2022-10-16T03:39:22;4.67;;;1.50;;
7003;SDS011;3542;48.812;9.146;2022-10-16T03:41:47;3.17;;;1.60;;
7003;SDS011;3542;48.812;9.146;2022-10-16T03:44:13;9.90;;;1.53;;
7003;SDS011;3542;48.812;9.146;2022-10-16T03:46:38;3.20;;;1.90;;
7003;SDS011;3542;48.812;9.146;2022-10-16T03:49:04;1.57;;;1.47;;
7003;SDS011;3542;48.812;9.146;2022-10-16T03:51:30;3.50;;;1.57;;
7003;SDS011;3542;48.812;9.146;2022-10-16T03:53:55;1.77;;;1.67;;
7003;SDS011;3542;48.812;9.146;2022-10-16T03:56:21;1.60;;;1.50;;
7003;SDS011;3542;48.812;9.146;2022-10-16T03:58:46;1.43;;;1.17;;
7003;SDS011;3542;48.812;9.146;2022-10-16T04:01:12;2.70;;;1.70;;
7003;SDS011;3542;48.812;9.146;2022-10-16T04:03:37;2.13;;;1.93;;
7003;SDS011;3542;48.812;9.146;2022-10-16T04:06:03;4.83;;;1.63;;
7003;SDS011;3542;48.812;9.146;2022-10-16T04:08:28;3.27;;;1.70;;
7003;SDS011;3542;48.812;9.146;2022-10-16T04:10:54;1.73;;;1.63;;
7003;SDS011;3542;48.812;9.146;2022-10-16T04:13:19;2.40;;;1.90;;
7003;SDS011;3542;48.812;9.146;2022-10-16T04:15:45;3.30;;;1.50;;
7003;SDS011;3542;48.812;9.146;2022-10-16T04:18:11;4.50;;;2.03;;
7003;SDS011;3542;48.812;9.146;2022-10-16T04:20:36;1.73;;;1.63;;
7003;SDS011;3542;48.812;9.146;2022-10-16T04:23:02;5.80;;;1.87;;
7003;SDS011;3542;48.812;9.146;2022-10-16T04:25:28;4.87;;;2.03;;
7003;SDS011;3542;48.812;9.146;2022-10-16T04:27:55;2.60;;;2.40;;
7003;SDS011;3542;48.812;9.146;2022-10-16T04:30:20;1.50;;;1.40;;
7003;SDS011;3542;48.812;9.146;2022-10-16T04:32:50;1.57;;;1.30;;
7003;SDS011;3542;48.812;9.146;2022-10-16T04:35:17;2.63;;;1.77;;
7003;SDS011;3542;48.812;9.146;2022-10-16T04:37:43;4.00;;;1.67;;
7003;SDS011;3542;48.812;9.146;2022-10-16T04:40:09;3.10;;;1.77;;
7003;SDS011;3542;48.812;9.146;2022-10-16T04:42:35;1.87;;;1.77;;
7003;SDS011;3542;48.812;9.146;2022-10-16T04:45:01;3.40;;;2.00;;
7003;SDS011;3542;48.812;9.146;2022-10-16T04:47:26;7.30;;;1.97;;
7003;SDS011;3542;48.812;9.146;2022-10-16T04:49:52;7.17;;;2.37;;
7003;SDS011;3542;48.812;9.146;2022-10-16T04:52:17;3.30;;;1.57;;
7003;SDS011;3542;48.812;9.146;2022-10-16T04:54:43;2.43;;;1.40;;
7003;SDS011;3542;48.812;9.146;2022-10-16T04:57:10;4.70;;;1.73;;
7003;SDS011;3542;48.812;9.146;2022-10-16T04:59:35;4.93;;;2.00;;
7003;SDS011;3542;48.812;9.146;2022-10-16T05:02:01;1.50;;;1.40;;
7003;SDS011;3542;48.812;9.146;2022-10-16T05:04:26;4.97;;;2.17;;
7003;SDS011;3542;48.812;9.146;2022-10-16T05:06:52;3.30;;;2.40;;
7003;SDS011;3542;48.812;9.146;2022-10-16T05:09:17;2.30;;;2.10;;
7003;SDS011;3542;48.812;9.146;2022-10-16T05:11:43;4.33;;;2.07;;
7003;SDS011;3542;48.812;9.146;2022-10-16T05:14:08;3.27;;;1.77;;
7003;SDS011;3542;48.812;9.146;2022-10-16T05:16:34;3.90;;;2.07;;
7003;SDS011;3542;48.812;9.146;2022-10-16T05:18:59;6.40;;;2.53;;
7003;SDS011;3542;48.812;9.146;2022-10-16T05:21:25;2.60;;;2.37;;
7003;SDS011;3542;48.812;9.146;2022-10-16T05:23:52;2.93;;;2.40;;
7003;SDS011;3542;48.812;9.146;2022-10-16T05:26:18;4.50;;;1.87;;
7003;SDS011;3542;48.812;9.146;2022-10-16T05:28:43;13.67;;;2.50;;
7003;SDS011;3542;48.812;9.146;2022-10-16T05:31:09;1.70;;;1.50;;
7003;SDS011;3542;48.812;9.146;2022-10-16T05:33:35;4.20;;;1.80;;
7003;SDS011;3542;48.812;9.146;2022-10-16T05:36:01;6.20;;;2.37;;
7003;SDS011;3542;48.812;9.146;2022-10-16T05:38:28;7.43;;;2.20;;
7003;SDS011;3542;48.812;9.146;2022-10-16T05:40:53;2.40;;;2.07;;
7003;SDS011;3542;48.812;9.146;2022-10-16T05:43:19;6.03;;;2.80;;
7003;SDS011;3542;48.812;9.146;2022-10-16T05:45:52;2.07;;;1.87;;
7003;SDS011;3542;48.812;9.146;2022-10-16T05:48:29;3.47;;;1.83;;
7003;SDS011;3542;48.812;9.146;2022-10-16T05:51:02;2.10;;;1.90;;
7003;SDS011;3542;48.812;9.146;2022-10-16T05:53:30;1.93;;;1.83;;
7003;SDS011;3542;48.812;9.146;2022-10-16T05:55:57;3.23;;;2.10;;
7003;SDS011;3542;48.812;9.146;2022-10-16T05:58:23;2.50;;;1.90;;
7003;SDS011;3542;48.812;9.146;2022-10-16T06:00:54;2.63;;;2.50;;
7003;SDS011;3542;48.812;9.146;2022-10-16T06:03:21;2.70;;;2.50;;
7003;SDS011;3542;48.812;9.146;2022-10-16T06:05:47;2.90;;;2.40;;
7003;SDS011;3542;48.812;9.146;2022-10-16T06:08:13;3.17;;;2.13;;
7003;SDS011;3542;48.812;9.146;2022-10-16T06:10:38;8.93;;;2.50;;
7003;SDS011;3542;48.812;9.146;2022-10-16T06:13:04;4.70;;;2.03;;
7003;SDS011;3542;48.812;9.146;2022-10-16T06:15:29;4.77;;;2.33;;
7003;SDS011;3542;48.812;9.146;2022-10-16T06:17:55;6.53;;;2.90;;
7003;SDS011;3542;48.812;9.146;2022-10-16T06:20:20;2.03;;;1.93;;
7003;SDS011;3542;48.812;9.146;2022-10-16T06:22:46;6.80;;;1.90;;
7003;SDS011;3542;48.812;9.146;2022-10-16T06:25:11;5.60;;;2.10;;
7003;SDS011;3542;48.812;9.146;2022-10-16T06:27:39;8.27;;;2.47;;
7003;SDS011;3542;48.812;9.146;2022-10-16T06:30:05;2.20;;;1.83;;
7003;SDS011;3542;48.812;9.146;2022-10-16T06:32:31;3.70;;;2.07;;
7003;SDS011;3542;48.812;9.146;2022-10-16T06:34:57;4.30;;;3.00;;
7003;SDS011;3542;48.812;9.146;2022-10-16T06:37:22;5.90;;;3.00;;
7003;SDS011;3542;48.812;9.146;2022-10-16T06:39:48;5.23;;;2.50;;
7003;SDS011;3542;48.812;9.146;2022-10-16T06:42:13;3.50;;;3.20;;
7003;SDS011;3542;48.812;9.146;2022-10-16T06:44:40;6.13;;;2.97;;
7003;SDS011;3542;48.812;9.146;2022-10-16T06:47:05;4.37;;;2.63;;
7003;SDS011;3542;48.812;9.146;2022-10-16T06:49:31;3.17;;;2.97;;
7003;SDS011;3542;48.812;9.146;2022-10-16T06:51:57;8.13;;;3.50;;
7003;SDS011;3542;48.812;9.146;2022-10-16T06:54:22;4.87;;;3.13;;
7003;SDS011;3542;48.812;9.146;2022-10-16T06:56:48;5.03;;;3.57;;
7003;SDS011;3542;48.812;9.146;2022-10-16T06:59:13;3.60;;;3.30;;
7003;SDS011;3542;48.812;9.146;2022-10-16T07:01:39;3.30;;;3.00;;
7003;SDS011;3542;48.812;9.146;2022-10-16T07:04:04;3.43;;;3.13;;
7003;SDS011;3542;48.812;9.146;2022-10-16T07:06:31;2.30;;;2.20;;
7003;SDS011;3542;48.812;9.146;2022-10-16T07:08:58;3.43;;;2.67;;
7003;SDS011;3542;48.812;9.146;2022-10-16T07:11:27;17.00;;;3.80;;
7003;SDS011;3542;48.812;9.146;2022-10-16T07:13:53;3.13;;;2.30;;
7003;SDS011;3542;48.812;9.146;2022-10-16T07:16:19;3.43;;;2.30;;
7003;SDS011;3542;48.812;9.146;2022-10-16T07:18:46;5.07;;;2.07;;
7003;SDS011;3542;48.812;9.146;2022-10-16T07:21:20;6.50;;;2.80;;
7003;SDS011;3542;48.812;9.146;2022-10-16T07:23:50;6.70;;;2.40;;
7003;SDS011;3542;48.812;9.146;2022-10-16T07:26:17;2.93;;;2.50;;
7003;SDS011;3542;48.812;9.146;2022-10-16T07:28:43;4.00;;;2.53;;
7003;SDS011;3542;48.812;9.146;2022-10-16T07:31:10;3.20;;;2.30;;
7003;SDS011;3542;48.812;9.146;2022-10-16T07:33:37;2.90;;;2.40;;
7003;SDS011;3542;48.812;9.146;2022-10-16T07:36:04;3.63;;;2.33;;
7003;SDS011;3542;48.812;9.146;2022-10-16T07:38:30;2.40;;;1.70;;
7003;SDS011;3542;48.812;9.146;2022-10-16T07:40:56;4.07;;;2.17;;
7003;SDS011;3542;48.812;9.146;2022-10-16T07:43:32;10.70;;;2.00;;
7003;SDS011;3542;48.812;9.146;2022-10-16T07:45:58;3.07;;;2.47;;
7003;SDS011;3542;48.812;9.146;2022-10-16T07:48:26;2.97;;;2.23;;
7003;SDS011;3542;48.812;9.146;2022-10-16T07:50:56;6.27;;;2.40;;
7003;SDS011;3542;48.812;9.146;2022-10-16T07:53:25;6.33;;;2.73;;
7003;SDS011;3542;48.812;9.146;2022-10-16T07:55:51;2.67;;;2.53;;
7003;SDS011;3542;48.812;9.146;2022-10-16T07:58:17;5.70;;;2.30;;
7003;SDS011;3542;48.812;9.146;2022-10-16T08:00:42;7.77;;;2.83;;
7003;SDS011;3542;48.812;9.146;2022-10-16T08:03:08;2.13;;;2.03;;
7003;SDS011;3542;48.812;9.146;2022-10-16T08:05:33;2.33;;;1.40;;
7003;SDS011;3542;48.812;9.146;2022-10-16T08:08:00;1.87;;;1.77;;
7003;SDS011;3542;48.812;9.146;2022-10-16T08:10:27;5.20;;;1.57;;
7003;SDS011;3542;48.812;9.146;2022-10-16T08:12:53;1.67;;;1.57;;
7003;SDS011;3542;48.812;9.146;2022-10-16T08:15:19;4.37;;;2.03;;
7003;SDS011;3542;48.812;9.146;2022-10-16T08:17:53;5.73;;;1.60;;
7003;SDS011;3542;48.812;9.146;2022-10-16T08:20:23;3.50;;;1.80;;
7003;SDS011;3542;48.812;9.146;2022-10-16T08:22:48;4.20;;;2.10;;
7003;SDS011;3542;48.812;9.146;2022-10-16T08:25:14;2.20;;;2.10;;
7003;SDS011;3542;48.812;9.146;2022-10-16T08:27:40;2.90;;;1.83;;
7003;SDS011;3542;48.812;9.146;2022-10-16T08:30:05;6.13;;;2.00;;
7003;SDS011;3542;48.812;9.146;2022-10-16T08:32:31;6.67;;;1.97;;
7003;SDS011;3542;48.812;9.146;2022-10-16T08:34:57;2.57;;;1.47;;
7003;SDS011;3542;48.812;9.146;2022-10-16T08:37:22;1.83;;;1.60;;
7003;SDS011;3542;48.812;9.146;2022-10-16T08:39:48;2.30;;;1.50;;
7003;SDS011;3542;48.812;9.146;2022-10-16T08:42:16;2.33;;;1.40;;
7003;SDS011;3542;48.812;9.146;2022-10-16T08:45:07;1.50;;;1.10;;
7003;SDS011;3542;48.812;9.146;2022-10-16T08:47:39;3.00;;;1.70;;
7003;SDS011;3542;48.812;9.146;2022-10-16T08:50:14;4.60;;;1.50;;
7003;SDS011;3542;48.812;9.146;2022-10-16T08:52:53;1.80;;;1.37;;
7003;SDS011;3542;48.812;9.146;2022-10-16T08:55:23;1.60;;;1.47;;
7003;SDS011;3542;48.812;9.146;2022-10-16T08:58:48;3.43;;;1.47;;
7003;SDS011;3542;48.812;9.146;2022-10-16T09:00:56;3.73;;;1.47;;
7003;SDS011;3542;48.812;9.146;2022-10-16T09:06:16;1.30;;;1.20;;
7003;SDS011;3542;48.812;9.146;2022-10-16T09:14:06;3.20;;;1.10;;
7003;SDS011;3542;48.812;9.146;2022-10-16T09:16:36;1.37;;;1.20;;
7003;SDS011;3542;48.812;9.146;2022-10-16T09:21:37;3.50;;;1.40;;
7003;SDS011;3542;48.812;9.146;2022-10-16T09:24:13;3.23;;;1.03;;
7003;SDS011;3542;48.812;9.146;2022-10-16T09:26:43;3.17;;;0.90;;
7003;SDS011;3542;48.812;9.146;2022-10-16T09:29:11;4.63;;;1.47;;
7003;SDS011;3542;48.812;9.146;2022-10-16T09:31:38;2.73;;;1.20;;
7003;SDS011;3542;48.812;9.146;2022-10-16T09:34:04;1.63;;;1.20;;
7003;SDS011;3542;48.812;9.146;2022-10-16T09:36:39;2.40;;;1.00;;
7003;SDS011;3542;48.812;9.146;2022-10-16T09:39:09;2.07;;;1.50;;
7003;SDS011;3542;48.812;9.146;2022-10-16T09:41:37;3.20;;;1.10;;
7003;SDS011;3542;48.812;9.146;2022-10-16T09:44:41;0.90;;;0.77;;
7003;SDS011;3542;48.812;9.146;2022-10-16T09:47:00;2.00;;;0.90;;
7003;SDS011;3542;48.812;9.146;2022-10-16T09:49:30;1.30;;;1.20;;
7003;SDS011;3542;48.812;9.146;2022-10-16T09:54:35;5.60;;;1.17;;
7003;SDS011;3542;48.812;9.146;2022-10-16T09:57:10;2.50;;;1.13;;
7003;SDS011;3542;48.812;9.146;2022-10-16T09:59:45;2.97;;;1.40;;
7003;SDS011;3542;48.812;9.146;2022-10-16T10:02:15;5.73;;;1.23;;
7003;SDS011;3542;48.812;9.146;2022-10-16T10:04:50;5.00;;;3.63;;
7003;SDS011;3542;48.812;9.146;2022-10-16T10:07:21;2.60;;;1.90;;
7003;SDS011;3542;48.812;9.146;2022-10-16T10:09:50;2.50;;;1.13;;
7003;SDS011;3542;48.812;9.146;2022-10-16T10:12:20;1.70;;;1.17;;
7003;SDS011;3542;48.812;9.146;2022-10-16T10:14:52;3.53;;;1.03;;
7003;SDS011;3542;48.812;9.146;2022-10-16T10:17:21;1.77;;;1.37;;
7003;SDS011;3542;48.812;9.146;2022-10-16T10:22:32;1.53;;;1.00;;
7003;SDS011;3542;48.812;9.146;2022-10-16T10:25:22;1.73;;;1.10;;
7003;SDS011;3542;48.812;9.146;2022-10-16T10:30:52;5.87;;;1.37;;
7003;SDS011;3542;48.812;9.146;2022-10-16T10:36:10;4.77;;;1.00;;
7003;SDS011;3542;48.812;9.146;2022-10-16T10:38:57;3.20;;;1.13;;
7003;SDS011;3542;48.812;9.146;2022-10-16T10:46:34;1.57;;;1.47;;
7003;SDS011;3542;48.812;9.146;2022-10-16T10:51:47;2.20;;;1.40;;
7003;SDS011;3542;48.812;9.146;2022-10-16T10:57:07;10.00;;;1.40;;
7003;SDS011;3542;48.812;9.146;2022-10-16T11:02:50;10.90;;;1.40;;
7003;SDS011;3542;48.812;9.146;2022-10-16T11:05:38;5.13;;;1.57;;
7003;SDS011;3542;48.812;9.146;2022-10-16T11:13:35;2.13;;;1.00;;
7003;SDS011;3542;48.812;9.146;2022-10-16T11:16:14;3.43;;;0.93;;
7003;SDS011;3542;48.812;9.146;2022-10-16T11:19:02;3.80;;;1.17;;
7003;SDS011;3542;48.812;9.146;2022-10-16T11:21:49;2.00;;;1.00;;
7003;SDS011;3542;48.812;9.146;2022-10-16T11:24:34;6.23;;;1.20;;
7003;SDS011;3542;48.812;9.146;2022-10-16T11:27:19;1.63;;;0.87;;
7003;SDS011;3542;48.812;9.146;2022-10-16T11:29:54;2.20;;;1.03;;
7003;SDS011;3542;48.812;9.146;2022-10-16T11:32:25;1.90;;;1.03;;
7003;SDS011;3542;48.812;9.146;2022-10-16T11:35:11;6.20;;;1.20;;
7003;SDS011;3542;48.812;9.146;2022-10-16T11:37:44;3.83;;;1.43;;
7003;SDS011;3542;48.812;9.146;2022-10-16T11:43:46;1.53;;;1.20;;
7003;SDS011;3542;48.812;9.146;2022-10-16T11:46:10;1.40;;;0.93;;
7003;SDS011;3542;48.812;9.146;2022-10-16T11:48:55;2.30;;;1.00;;
7003;SDS011;3542;48.812;9.146;2022-10-16T11:51:38;1.53;;;1.10;;
7003;SDS011;3542;48.812;9.146;2022-10-16T11:57:02;2.33;;;0.80;;
7003;SDS011;3542;48.812;9.146;2022-10-16T11:59:42;6.27;;;1.57;;
7003;SDS011;3542;48.812;9.146;2022-10-16T12:05:19;3.53;;;1.27;;
7003;SDS011;3542;48.812;9.146;2022-10-16T12:10:36;1.63;;;1.07;;
7003;SDS011;3542;48.812;9.146;2022-10-16T12:13:05;6.10;;;1.10;;
7003;SDS011;3542;48.812;9.146;2022-10-16T12:15:49;2.03;;;1.17;;
7003;SDS011;3542;48.812;9.146;2022-10-16T12:18:21;2.47;;;1.07;;
7003;SDS011;3542;48.812;9.146;2022-10-16T12:20:54;1.20;;;0.93;;
7003;SDS011;3542;48.812;9.146;2022-10-16T12:23:23;1.30;;;0.80;;
7003;SDS011;3542;48.812;9.146;2022-10-16T12:25:57;2.87;;;1.13;;
7003;SDS011;3542;48.812;9.146;2022-10-16T12:28:27;5.70;;;0.90;;
7003;SDS011;3542;48.812;9.146;2022-10-16T12:30:55;3.20;;;1.23;;
7003;SDS011;3542;48.812;9.146;2022-10-16T12:33:22;2.50;;;1.20;;
7003;SDS011;3542;48.812;9.146;2022-10-16T12:35:50;1.60;;;1.40;;
7003;SDS011;3542;48.812;9.146;2022-10-16T12:38:20;1.10;;;1.00;;
7003;SDS011;3542;48.812;9.146;2022-10-16T12:40:57;1.00;;;0.80;;
7003;SDS011;3542;48.812;9.146;2022-10-16T12:43:27;1.47;;;1.00;;
7003;SDS011;3542;48.812;9.146;2022-10-16T12:48:35;6.90;;;0.97;;
7003;SDS011;3542;48.812;9.146;2022-10-16T12:53:37;0.90;;;0.90;;
7003;SDS011;3542;48.812;9.146;2022-10-16T12:59:07;1.63;;;1.10;;
7003;SDS011;3542;48.812;9.146;2022-10-16T13:07:32;2.80;;;1.03;;
7003;SDS011;3542;48.812;9.146;2022-10-16T13:10:24;2.33;;;1.10;;
7003;SDS011;3542;48.812;9.146;2022-10-16T13:13:37;1.67;;;1.07;;
7003;SDS011;3542;48.812;9.146;2022-10-16T13:21:34;2.20;;;1.17;;
7003;SDS011;3542;48.812;9.146;2022-10-16T13:29:37;3.20;;;1.17;;
7003;SDS011;3542;48.812;9.146;2022-10-16T13:32:09;2.93;;;1.50;;
7003;SDS011;3542;48.812;9.146;2022-10-16T13:34:47;2.13;;;1.57;;
7003;SDS011;3542;48.812;9.146;2022-10-16T13:37:21;5.00;;;1.37;;
7003;SDS011;3542;48.812;9.146;2022-10-16T13:39:47;4.20;;;1.03;;
7003;SDS011;3542;48.812;9.146;2022-10-16T13:42:19;2.60;;;1.50;;
7003;SDS011;3542;48.812;9.146;2022-10-16T13:44:51;2.47;;;1.70;;
7003;SDS011;3542;48.812;9.146;2022-10-16T13:49:45;3.10;;;1.40;;
7003;SDS011;3542;48.812;9.146;2022-10-16T13:52:20;4.47;;;1.33;;
7003;SDS011;3542;48.812;9.146;2022-10-16T13:54:46;1.40;;;1.23;;
7003;SDS011;3542;48.812;9.146;2022-10-16T13:57:15;2.38;;;1.65;;
7003;SDS011;3542;48.812;9.146;2022-10-16T13:59:41;4.63;;;0.97;;
7003;SDS011;3542;48.812;9.146;2022-10-16T14:02:50;2.10;;;1.57;;
7003;SDS011;3542;48.812;9.146;2022-10-16T14:05:00;2.60;;;1.50;;
7003;SDS011;3542;48.812;9.146;2022-10-16T14:07:28;1.43;;;1.33;;
7003;SDS011;3542;48.812;9.146;2022-10-16T14:09:56;1.10;;;1.00;;
7003;SDS011;3542;48.812;9.146;2022-10-16T14:12:26;4.80;;;1.30;;
7003;SDS011;3542;48.812;9.146;2022-10-16T14:14:52;1.90;;;1.40;;
7003;SDS011;3542;48.812;9.146;2022-10-16T14:19:51;3.43;;;1.67;;
7003;SDS011;3542;48.812;9.146;2022-10-16T14:22:32;4.17;;;1.57;;
7003;SDS011;3542;48.812;9.146;2022-10-16T14:27:56;1.20;;;1.20;;
7003;SDS011;3542;48.812;9.146;2022-10-16T14:30:28;2.30;;;1.37;;
7003;SDS011;3542;48.812;9.146;2022-10-16T14:32:56;2.97;;;2.60;;
7003;SDS011;3542;48.812;9.146;2022-10-16T14:35:24;2.70;;;1.80;;
7003;SDS011;3542;48.812;9.146;2022-10-16T14:37:58;4.60;;;1.47;;
7003;SDS011;3542;48.812;9.146;2022-10-16T14:40:33;2.30;;;1.50;;
7003;SDS011;3542;48.812;9.146;2022-10-16T14:43:00;1.70;;;1.60;;
7003;SDS011;3542;48.812;9.146;2022-10-16T14:45:28;4.23;;;1.43;;
7003;SDS011;3542;48.812;9.146;2022-10-16T14:47:57;2.20;;;2.00;;
7003;SDS011;3542;48.812;9.146;2022-10-16T14:50:25;2.10;;;1.70;;
7003;SDS011;3542;48.812;9.146;2022-10-16T14:52:50;3.60;;;1.80;;
7003;SDS011;3542;48.812;9.146;2022-10-16T14:55:16;1.57;;;1.47;;
7003;SDS011;3542;48.812;9.146;2022-10-16T14:57:42;1.73;;;1.63;;
7003;SDS011;3542;48.812;9.146;2022-10-16T15:00:22;3.30;;;1.60;;
7003;SDS011;3542;48.812;9.146;2022-10-16T15:02:49;3.90;;;1.67;;
7003;SDS011;3542;48.812;9.146;2022-10-16T15:07:43;1.73;;;1.10;;
7003;SDS011;3542;48.812;9.146;2022-10-16T15:10:10;2.90;;;1.73;;
7003;SDS011;3542;48.812;9.146;2022-10-16T15:12:37;1.40;;;1.30;;
7003;SDS011;3542;48.812;9.146;2022-10-16T15:15:23;1.87;;;1.30;;
7003;SDS011;3542;48.812;9.146;2022-10-16T15:17:55;1.50;;;1.40;;
7003;SDS011;3542;48.812;9.146;2022-10-16T15:20:24;3.93;;;1.57;;
7003;SDS011;3542;48.812;9.146;2022-10-16T15:22:51;3.33;;;2.00;;
7003;SDS011;3542;48.812;9.146;2022-10-16T15:27:56;3.70;;;2.57;;
7003;SDS011;3542;48.812;9.146;2022-10-16T15:30:22;5.23;;;3.00;;
7003;SDS011;3542;48.812;9.146;2022-10-16T15:32:48;20.80;;;3.43;;
